sensor_id;sensor_type;location;lat;lon;timestamp;temperature;humidity
21306;DHT22;10812;51.838;5.838;2022-09-09T00:01:02;15.00;99.90
21306;DHT22;10812;51.838;5.838;2022-09-09T00:03:42;15.00;99.90
21306;DHT22;10812;51.838;5.838;2022-09-09T00:06:17;14.90;99.90
21306;DHT22;10812;51.838;5.838;2022-09-09T00:08:56;14.90;99.90
21306;DHT22;10812;51.838;5.838;2022-09-09T00:11:32;14.90;99.90
21306;DHT22;10812;51.838;5.838;2022-09-09T00:14:09;14.90;99.90
21306;DHT22;10812;51.838;5.838;2022-09-09T00:16:45;14.90;99.90
21306;DHT22;10812;51.838;5.838;2022-09-09T00:19:20;14.80;99.90
21306;DHT22;10812;51.838;5.838;2022-09-09T00:21:57;14.80;99.90
21306;DHT22;10812;51.838;5.838;2022-09-09T00:24:34;14.80;99.90
21306;DHT22;10812;51.838;5.838;2022-09-09T00:27:11;14.80;99.90
21306;DHT22;10812;51.838;5.838;2022-09-09T00:29:43;14.80;99.90
21306;DHT22;10812;51.838;5.838;2022-09-09T00:32:17;14.80;99.90
21306;DHT22;10812;51.838;5.838;2022-09-09T00:34:49;14.80;99.90
21306;DHT22;10812;51.838;5.838;2022-09-09T00:37:19;14.70;99.90
21306;DHT22;10812;51.838;5.838;2022-09-09T00:39:49;14.70;99.90
21306;DHT22;10812;51.838;5.838;2022-09-09T00:42:22;14.70;99.90
21306;DHT22;10812;51.838;5.838;2022-09-09T00:44:55;14.60;99.90
21306;DHT22;10812;51.838;5.838;2022-09-09T00:50:36;14.50;99.90
21306;DHT22;10812;51.838;5.838;2022-09-09T00:53:20;14.50;99.90
21306;DHT22;10812;51.838;5.838;2022-09-09T00:55:56;14.40;99.90
21306;DHT22;10812;51.838;5.838;2022-09-09T00:58:26;14.30;99.90
21306;DHT22;10812;51.838;5.838;2022-09-09T01:00:59;14.30;99.90
21306;DHT22;10812;51.838;5.838;2022-09-09T01:03:34;14.20;99.90
21306;DHT22;10812;51.838;5.838;2022-09-09T01:06:12;14.20;99.90
21306;DHT22;10812;51.838;5.838;2022-09-09T01:09:04;14.10;99.90
21306;DHT22;10812;51.838;5.838;2022-09-09T01:11:42;14.10;99.90
21306;DHT22;10812;51.838;5.838;2022-09-09T01:14:22;14.00;99.90
21306;DHT22;10812;51.838;5.838;2022-09-09T01:16:54;14.00;99.90
21306;DHT22;10812;51.838;5.838;2022-09-09T01:34:40;13.90;99.90
21306;DHT22;10812;51.838;5.838;2022-09-09T01:37:10;13.80;99.90
21306;DHT22;10812;51.838;5.838;2022-09-09T01:39:42;13.70;99.90
21306;DHT22;10812;51.838;5.838;2022-09-09T01:42:15;13.70;99.90
21306;DHT22;10812;51.838;5.838;2022-09-09T01:44:43;13.80;99.90
21306;DHT22;10812;51.838;5.838;2022-09-09T01:47:11;13.70;99.90
21306;DHT22;10812;51.838;5.838;2022-09-09T01:49:41;13.70;99.90
21306;DHT22;10812;51.838;5.838;2022-09-09T01:52:09;13.70;99.90
21306;DHT22;10812;51.838;5.838;2022-09-09T01:54:38;13.70;99.90
21306;DHT22;10812;51.838;5.838;2022-09-09T01:57:11;13.70;99.90
21306;DHT22;10812;51.838;5.838;2022-09-09T01:59:50;13.60;99.90
21306;DHT22;10812;51.838;5.838;2022-09-09T02:02:23;13.70;99.90
21306;DHT22;10812;51.838;5.838;2022-09-09T02:04:56;13.70;99.90
21306;DHT22;10812;51.838;5.838;2022-09-09T02:07:35;13.70;99.90
21306;DHT22;10812;51.838;5.838;2022-09-09T02:10:10;13.70;99.90
21306;DHT22;10812;51.838;5.838;2022-09-09T02:12:41;13.70;99.90
21306;DHT22;10812;51.838;5.838;2022-09-09T02:15:19;13.70;99.90
21306;DHT22;10812;51.838;5.838;2022-09-09T02:17:50;13.60;99.90
21306;DHT22;10812;51.838;5.838;2022-09-09T02:20:22;13.60;99.90
21306;DHT22;10812;51.838;5.838;2022-09-09T02:22:57;13.60;99.90
21306;DHT22;10812;51.838;5.838;2022-09-09T02:25:28;13.60;99.90
21306;DHT22;10812;51.838;5.838;2022-09-09T02:27:56;13.70;99.90
21306;DHT22;10812;51.838;5.838;2022-09-09T02:30:28;13.60;99.90
21306;DHT22;10812;51.838;5.838;2022-09-09T02:32:58;13.70;99.90
21306;DHT22;10812;51.838;5.838;2022-09-09T02:35:30;13.60;99.90
21306;DHT22;10812;51.838;5.838;2022-09-09T02:38:02;13.60;99.90
21306;DHT22;10812;51.838;5.838;2022-09-09T02:40:31;13.60;99.90
21306;DHT22;10812;51.838;5.838;2022-09-09T02:42:59;13.60;99.90
21306;DHT22;10812;51.838;5.838;2022-09-09T02:45:33;13.60;99.90
21306;DHT22;10812;51.838;5.838;2022-09-09T02:48:09;13.60;99.90
21306;DHT22;10812;51.838;5.838;2022-09-09T02:50:45;13.60;99.90
21306;DHT22;10812;51.838;5.838;2022-09-09T02:53:18;13.60;99.90
21306;DHT22;10812;51.838;5.838;2022-09-09T02:55:48;13.60;99.90
21306;DHT22;10812;51.838;5.838;2022-09-09T02:58:18;13.60;99.90
21306;DHT22;10812;51.838;5.838;2022-09-09T03:06:08;13.50;99.90
21306;DHT22;10812;51.838;5.838;2022-09-09T03:08:38;13.50;99.90
21306;DHT22;10812;51.838;5.838;2022-09-09T03:11:14;13.50;99.90
21306;DHT22;10812;51.838;5.838;2022-09-09T03:13:42;13.50;99.90
21306;DHT22;10812;51.838;5.838;2022-09-09T03:16:10;13.50;99.90
21306;DHT22;10812;51.838;5.838;2022-09-09T03:18:38;13.50;99.90
21306;DHT22;10812;51.838;5.838;2022-09-09T03:21:06;13.50;99.90
21306;DHT22;10812;51.838;5.838;2022-09-09T03:23:36;13.50;99.90
21306;DHT22;10812;51.838;5.838;2022-09-09T03:26:04;13.50;99.90
21306;DHT22;10812;51.838;5.838;2022-09-09T03:28:32;13.60;99.90
21306;DHT22;10812;51.838;5.838;2022-09-09T03:34:24;13.50;99.90
21306;DHT22;10812;51.838;5.838;2022-09-09T03:36:52;13.60;99.90
21306;DHT22;10812;51.838;5.838;2022-09-09T03:39:21;13.60;99.90
21306;DHT22;10812;51.838;5.838;2022-09-09T03:41:49;13.60;99.90
21306;DHT22;10812;51.838;5.838;2022-09-09T03:44:17;13.60;99.90
21306;DHT22;10812;51.838;5.838;2022-09-09T03:46:45;13.60;99.90
21306;DHT22;10812;51.838;5.838;2022-09-09T03:49:13;13.60;99.90
21306;DHT22;10812;51.838;5.838;2022-09-09T03:51:41;13.60;99.90
21306;DHT22;10812;51.838;5.838;2022-09-09T03:54:09;13.70;99.90
21306;DHT22;10812;51.838;5.838;2022-09-09T03:56:39;13.70;99.90
21306;DHT22;10812;51.838;5.838;2022-09-09T03:59:08;13.70;99.90
21306;DHT22;10812;51.838;5.838;2022-09-09T04:01:36;13.70;99.90
21306;DHT22;10812;51.838;5.838;2022-09-09T04:04:04;13.70;99.90
21306;DHT22;10812;51.838;5.838;2022-09-09T04:06:32;13.80;99.90
21306;DHT22;10812;51.838;5.838;2022-09-09T04:09:00;13.80;99.90
21306;DHT22;10812;51.838;5.838;2022-09-09T04:11:30;13.80;99.90
21306;DHT22;10812;51.838;5.838;2022-09-09T04:13:59;13.90;99.90
21306;DHT22;10812;51.838;5.838;2022-09-09T04:16:27;13.90;99.90
21306;DHT22;10812;51.838;5.838;2022-09-09T04:18:56;13.90;99.90
21306;DHT22;10812;51.838;5.838;2022-09-09T04:21:24;14.00;99.90
21306;DHT22;10812;51.838;5.838;2022-09-09T04:23:52;14.00;99.90
21306;DHT22;10812;51.838;5.838;2022-09-09T04:26:20;14.00;99.90
21306;DHT22;10812;51.838;5.838;2022-09-09T04:28:48;14.00;99.90
21306;DHT22;10812;51.838;5.838;2022-09-09T04:31:20;14.00;99.90
21306;DHT22;10812;51.838;5.838;2022-09-09T04:33:50;14.10;99.90
21306;DHT22;10812;51.838;5.838;2022-09-09T04:36:19;14.10;99.90
21306;DHT22;10812;51.838;5.838;2022-09-09T04:38:47;14.20;99.90
21306;DHT22;10812;51.838;5.838;2022-09-09T04:41:16;14.20;99.90
21306;DHT22;10812;51.838;5.838;2022-09-09T04:43:44;14.20;99.90
21306;DHT22;10812;51.838;5.838;2022-09-09T04:46:12;14.20;99.90
21306;DHT22;10812;51.838;5.838;2022-09-09T04:48:41;14.20;99.90
21306;DHT22;10812;51.838;5.838;2022-09-09T04:51:12;14.20;99.90
21306;DHT22;10812;51.838;5.838;2022-09-09T04:53:40;14.30;99.90
21306;DHT22;10812;51.838;5.838;2022-09-09T04:56:10;14.30;99.90
21306;DHT22;10812;51.838;5.838;2022-09-09T04:58:39;14.30;99.90
21306;DHT22;10812;51.838;5.838;2022-09-09T05:01:10;14.40;99.90
21306;DHT22;10812;51.838;5.838;2022-09-09T05:03:40;14.40;99.90
21306;DHT22;10812;51.838;5.838;2022-09-09T05:06:10;14.40;99.90
21306;DHT22;10812;51.838;5.838;2022-09-09T05:08:39;14.50;99.90
21306;DHT22;10812;51.838;5.838;2022-09-09T05:11:14;14.40;99.90
21306;DHT22;10812;51.838;5.838;2022-09-09T05:13:43;14.40;99.90
21306;DHT22;10812;51.838;5.838;2022-09-09T05:16:11;14.40;99.90
21306;DHT22;10812;51.838;5.838;2022-09-09T05:18:41;14.50;99.90
21306;DHT22;10812;51.838;5.838;2022-09-09T05:21:10;14.40;99.90
21306;DHT22;10812;51.838;5.838;2022-09-09T05:23:39;14.40;99.90
21306;DHT22;10812;51.838;5.838;2022-09-09T05:26:10;14.50;99.90
21306;DHT22;10812;51.838;5.838;2022-09-09T05:28:43;14.50;99.90
21306;DHT22;10812;51.838;5.838;2022-09-09T05:31:13;14.60;99.90
21306;DHT22;10812;51.838;5.838;2022-09-09T05:33:44;14.60;99.90
21306;DHT22;10812;51.838;5.838;2022-09-09T05:36:14;14.70;99.90
21306;DHT22;10812;51.838;5.838;2022-09-09T05:38:43;14.80;99.90
21306;DHT22;10812;51.838;5.838;2022-09-09T05:41:13;14.80;99.90
21306;DHT22;10812;51.838;5.838;2022-09-09T05:43:43;14.90;99.90
21306;DHT22;10812;51.838;5.838;2022-09-09T05:46:14;14.90;99.90
21306;DHT22;10812;51.838;5.838;2022-09-09T05:48:44;14.90;99.90
21306;DHT22;10812;51.838;5.838;2022-09-09T05:58:46;15.20;99.90
21306;DHT22;10812;51.838;5.838;2022-09-09T06:01:17;15.30;99.90
21306;DHT22;10812;51.838;5.838;2022-09-09T06:03:48;15.50;99.90
21306;DHT22;10812;51.838;5.838;2022-09-09T06:06:17;15.80;99.90
21306;DHT22;10812;51.838;5.838;2022-09-09T06:08:48;16.30;99.90
21306;DHT22;10812;51.838;5.838;2022-09-09T06:11:19;16.70;99.90
21306;DHT22;10812;51.838;5.838;2022-09-09T06:13:48;16.90;99.90
21306;DHT22;10812;51.838;5.838;2022-09-09T06:16:19;17.00;99.90
21306;DHT22;10812;51.838;5.838;2022-09-09T06:18:51;17.30;99.90
21306;DHT22;10812;51.838;5.838;2022-09-09T06:21:22;17.80;99.90
21306;DHT22;10812;51.838;5.838;2022-09-09T06:23:50;19.10;99.90
21306;DHT22;10812;51.838;5.838;2022-09-09T06:26:26;20.30;99.90
21306;DHT22;10812;51.838;5.838;2022-09-09T06:28:55;21.60;99.90
21306;DHT22;10812;51.838;5.838;2022-09-09T06:31:25;20.90;99.90
21306;DHT22;10812;51.838;5.838;2022-09-09T06:33:58;19.80;99.90
21306;DHT22;10812;51.838;5.838;2022-09-09T06:36:27;19.80;99.90
21306;DHT22;10812;51.838;5.838;2022-09-09T06:38:55;20.20;99.90
21306;DHT22;10812;51.838;5.838;2022-09-09T06:41:25;20.60;99.90
21306;DHT22;10812;51.838;5.838;2022-09-09T06:43:54;20.70;99.90
21306;DHT22;10812;51.838;5.838;2022-09-09T06:46:25;21.00;99.90
21306;DHT22;10812;51.838;5.838;2022-09-09T06:48:56;21.30;99.90
21306;DHT22;10812;51.838;5.838;2022-09-09T06:51:26;21.80;99.90
21306;DHT22;10812;51.838;5.838;2022-09-09T06:53:56;22.20;99.90
21306;DHT22;10812;51.838;5.838;2022-09-09T06:56:26;21.90;99.90
21306;DHT22;10812;51.838;5.838;2022-09-09T06:58:56;21.40;99.90
21306;DHT22;10812;51.838;5.838;2022-09-09T07:01:26;20.80;99.90
21306;DHT22;10812;51.838;5.838;2022-09-09T07:03:57;20.40;99.90
21306;DHT22;10812;51.838;5.838;2022-09-09T07:06:29;20.10;99.90
21306;DHT22;10812;51.838;5.838;2022-09-09T07:08:59;20.60;99.90
21306;DHT22;10812;51.838;5.838;2022-09-09T07:11:28;21.00;99.90
21306;DHT22;10812;51.838;5.838;2022-09-09T07:13:58;20.90;99.90
21306;DHT22;10812;51.838;5.838;2022-09-09T07:16:27;20.60;99.90
21306;DHT22;10812;51.838;5.838;2022-09-09T07:18:57;20.20;99.90
21306;DHT22;10812;51.838;5.838;2022-09-09T07:21:26;20.00;99.90
21306;DHT22;10812;51.838;5.838;2022-09-09T07:23:56;20.60;99.90
21306;DHT22;10812;51.838;5.838;2022-09-09T07:26:27;21.00;99.90
21306;DHT22;10812;51.838;5.838;2022-09-09T07:28:56;20.90;99.90
21306;DHT22;10812;51.838;5.838;2022-09-09T07:31:25;21.60;99.90
21306;DHT22;10812;51.838;5.838;2022-09-09T07:33:54;22.40;99.90
21306;DHT22;10812;51.838;5.838;2022-09-09T07:36:25;22.10;99.90
21306;DHT22;10812;51.838;5.838;2022-09-09T07:39:00;22.20;99.90
21306;DHT22;10812;51.838;5.838;2022-09-09T07:41:31;22.30;99.90
21306;DHT22;10812;51.838;5.838;2022-09-09T07:44:04;22.10;99.90
21306;DHT22;10812;51.838;5.838;2022-09-09T07:46:33;21.90;99.90
21306;DHT22;10812;51.838;5.838;2022-09-09T07:49:02;21.80;99.90
21306;DHT22;10812;51.838;5.838;2022-09-09T07:51:33;21.80;99.90
21306;DHT22;10812;51.838;5.838;2022-09-09T07:54:04;21.10;99.90
21306;DHT22;10812;51.838;5.838;2022-09-09T07:56:32;20.60;99.90
21306;DHT22;10812;51.838;5.838;2022-09-09T07:59:00;19.80;99.90
21306;DHT22;10812;51.838;5.838;2022-09-09T08:01:32;19.30;99.90
21306;DHT22;10812;51.838;5.838;2022-09-09T08:04:05;19.20;99.90
21306;DHT22;10812;51.838;5.838;2022-09-09T08:06:37;19.30;99.90
21306;DHT22;10812;51.838;5.838;2022-09-09T08:09:07;19.30;99.90
21306;DHT22;10812;51.838;5.838;2022-09-09T08:11:35;19.40;99.90
21306;DHT22;10812;51.838;5.838;2022-09-09T08:14:05;19.50;99.90
21306;DHT22;10812;51.838;5.838;2022-09-09T08:16:36;19.60;99.90
21306;DHT22;10812;51.838;5.838;2022-09-09T08:19:05;19.50;99.90
21306;DHT22;10812;51.838;5.838;2022-09-09T08:21:37;19.50;99.90
21306;DHT22;10812;51.838;5.838;2022-09-09T08:24:07;19.40;99.90
21306;DHT22;10812;51.838;5.838;2022-09-09T08:26:38;19.20;99.90
21306;DHT22;10812;51.838;5.838;2022-09-09T08:29:07;19.20;99.90
21306;DHT22;10812;51.838;5.838;2022-09-09T08:31:38;19.20;99.90
21306;DHT22;10812;51.838;5.838;2022-09-09T08:34:07;19.20;99.90
21306;DHT22;10812;51.838;5.838;2022-09-09T08:36:38;19.00;99.90
21306;DHT22;10812;51.838;5.838;2022-09-09T08:39:08;18.80;99.90
21306;DHT22;10812;51.838;5.838;2022-09-09T08:42:09;18.60;99.90
21306;DHT22;10812;51.838;5.838;2022-09-09T08:44:49;18.60;99.90
21306;DHT22;10812;51.838;5.838;2022-09-09T08:47:26;18.70;99.90
21306;DHT22;10812;51.838;5.838;2022-09-09T08:50:16;18.70;99.90
21306;DHT22;10812;51.838;5.838;2022-09-09T08:52:53;18.80;99.90
21306;DHT22;10812;51.838;5.838;2022-09-09T08:55:27;19.10;99.90
21306;DHT22;10812;51.838;5.838;2022-09-09T08:57:59;19.30;99.90
21306;DHT22;10812;51.838;5.838;2022-09-09T09:00:34;19.30;99.90
21306;DHT22;10812;51.838;5.838;2022-09-09T09:03:18;19.30;99.90
21306;DHT22;10812;51.838;5.838;2022-09-09T09:05:57;19.40;99.90
21306;DHT22;10812;51.838;5.838;2022-09-09T09:08:33;19.70;99.90
21306;DHT22;10812;51.838;5.838;2022-09-09T09:11:05;19.80;99.90
21306;DHT22;10812;51.838;5.838;2022-09-09T09:13:39;19.60;99.90
21306;DHT22;10812;51.838;5.838;2022-09-09T09:16:17;19.40;99.90
21306;DHT22;10812;51.838;5.838;2022-09-09T09:18:47;19.30;99.90
21306;DHT22;10812;51.838;5.838;2022-09-09T09:21:17;19.20;99.90
21306;DHT22;10812;51.838;5.838;2022-09-09T09:23:55;19.10;99.90
21306;DHT22;10812;51.838;5.838;2022-09-09T09:26:25;19.00;99.90
21306;DHT22;10812;51.838;5.838;2022-09-09T09:28:58;19.10;99.90
21306;DHT22;10812;51.838;5.838;2022-09-09T09:31:26;19.20;99.90
21306;DHT22;10812;51.838;5.838;2022-09-09T09:33:55;19.20;99.90
21306;DHT22;10812;51.838;5.838;2022-09-09T09:36:32;19.30;99.90
21306;DHT22;10812;51.838;5.838;2022-09-09T09:39:03;19.20;99.90
21306;DHT22;10812;51.838;5.838;2022-09-09T09:41:52;19.30;99.90
21306;DHT22;10812;51.838;5.838;2022-09-09T09:44:26;19.40;99.90
21306;DHT22;10812;51.838;5.838;2022-09-09T09:47:06;19.60;99.90
21306;DHT22;10812;51.838;5.838;2022-09-09T09:49:34;19.60;99.90
21306;DHT22;10812;51.838;5.838;2022-09-09T09:52:04;19.60;99.90
21306;DHT22;10812;51.838;5.838;2022-09-09T09:54:37;19.60;99.90
21306;DHT22;10812;51.838;5.838;2022-09-09T09:57:10;19.40;99.90
21306;DHT22;10812;51.838;5.838;2022-09-09T09:59:39;19.20;99.90
21306;DHT22;10812;51.838;5.838;2022-09-09T10:02:15;19.20;99.90
21306;DHT22;10812;51.838;5.838;2022-09-09T10:04:43;19.20;99.90
21306;DHT22;10812;51.838;5.838;2022-09-09T10:07:12;19.00;99.90
21306;DHT22;10812;51.838;5.838;2022-09-09T10:09:42;18.90;99.90
21306;DHT22;10812;51.838;5.838;2022-09-09T10:12:18;18.80;99.90
21306;DHT22;10812;51.838;5.838;2022-09-09T10:14:54;18.80;99.90
21306;DHT22;10812;51.838;5.838;2022-09-09T10:17:30;18.80;99.90
21306;DHT22;10812;51.838;5.838;2022-09-09T10:20:15;18.90;99.90
21306;DHT22;10812;51.838;5.838;2022-09-09T10:22:50;19.10;99.90
21306;DHT22;10812;51.838;5.838;2022-09-09T10:25:30;19.20;99.90
21306;DHT22;10812;51.838;5.838;2022-09-09T10:28:23;19.10;99.90
21306;DHT22;10812;51.838;5.838;2022-09-09T10:31:02;19.10;99.90
21306;DHT22;10812;51.838;5.838;2022-09-09T10:33:37;19.20;99.90
21306;DHT22;10812;51.838;5.838;2022-09-09T10:36:13;19.30;99.90
21306;DHT22;10812;51.838;5.838;2022-09-09T10:38:47;19.50;99.90
21306;DHT22;10812;51.838;5.838;2022-09-09T10:41:19;20.00;99.90
21306;DHT22;10812;51.838;5.838;2022-09-09T10:44:12;20.40;99.90
21306;DHT22;10812;51.838;5.838;2022-09-09T10:46:52;20.60;99.90
21306;DHT22;10812;51.838;5.838;2022-09-09T10:49:42;20.50;99.90
21306;DHT22;10812;51.838;5.838;2022-09-09T10:52:17;20.30;99.90
21306;DHT22;10812;51.838;5.838;2022-09-09T10:54:55;20.10;99.90
21306;DHT22;10812;51.838;5.838;2022-09-09T10:57:29;20.00;99.90
21306;DHT22;10812;51.838;5.838;2022-09-09T11:00:03;19.60;99.90
21306;DHT22;10812;51.838;5.838;2022-09-09T11:02:34;19.40;99.90
21306;DHT22;10812;51.838;5.838;2022-09-09T11:05:05;19.20;99.90
21306;DHT22;10812;51.838;5.838;2022-09-09T11:07:39;19.00;99.90
21306;DHT22;10812;51.838;5.838;2022-09-09T11:10:18;18.90;99.90
21306;DHT22;10812;51.838;5.838;2022-09-09T11:12:51;19.00;99.90
21306;DHT22;10812;51.838;5.838;2022-09-09T11:15:23;19.20;99.90
21306;DHT22;10812;51.838;5.838;2022-09-09T11:17:56;19.30;99.90
21306;DHT22;10812;51.838;5.838;2022-09-09T11:20:26;18.90;99.90
21306;DHT22;10812;51.838;5.838;2022-09-09T11:22:59;18.50;99.90
21306;DHT22;10812;51.838;5.838;2022-09-09T11:25:32;18.20;99.90
21306;DHT22;10812;51.838;5.838;2022-09-09T11:28:23;18.20;99.90
21306;DHT22;10812;51.838;5.838;2022-09-09T11:31:03;18.50;99.90
21306;DHT22;10812;51.838;5.838;2022-09-09T11:33:51;18.50;99.90
21306;DHT22;10812;51.838;5.838;2022-09-09T11:36:49;18.40;99.90
21306;DHT22;10812;51.838;5.838;2022-09-09T11:39:51;18.20;99.90
21306;DHT22;10812;51.838;5.838;2022-09-09T11:42:24;18.10;99.90
21306;DHT22;10812;51.838;5.838;2022-09-09T11:44:54;17.90;99.90
21306;DHT22;10812;51.838;5.838;2022-09-09T11:47:25;17.80;99.90
21306;DHT22;10812;51.838;5.838;2022-09-09T11:50:22;17.80;99.90
21306;DHT22;10812;51.838;5.838;2022-09-09T11:56:12;18.10;99.90
21306;DHT22;10812;51.838;5.838;2022-09-09T11:58:43;18.30;99.90
21306;DHT22;10812;51.838;5.838;2022-09-09T12:05:36;18.70;99.90
21306;DHT22;10812;51.838;5.838;2022-09-09T12:08:05;18.70;99.90
21306;DHT22;10812;51.838;5.838;2022-09-09T12:10:35;18.50;99.90
21306;DHT22;10812;51.838;5.838;2022-09-09T12:13:15;18.60;99.90
21306;DHT22;10812;51.838;5.838;2022-09-09T12:15:47;18.50;99.90
21306;DHT22;10812;51.838;5.838;2022-09-09T12:18:22;18.70;99.90
21306;DHT22;10812;51.838;5.838;2022-09-09T12:21:00;18.80;99.90
21306;DHT22;10812;51.838;5.838;2022-09-09T12:23:40;18.90;99.90
21306;DHT22;10812;51.838;5.838;2022-09-09T12:26:23;19.00;99.90
21306;DHT22;10812;51.838;5.838;2022-09-09T12:29:01;18.90;99.90
21306;DHT22;10812;51.838;5.838;2022-09-09T12:31:35;18.80;99.90
21306;DHT22;10812;51.838;5.838;2022-09-09T12:34:15;18.90;99.90
21306;DHT22;10812;51.838;5.838;2022-09-09T12:36:55;19.00;99.90
21306;DHT22;10812;51.838;5.838;2022-09-09T12:39:30;19.30;99.90
21306;DHT22;10812;51.838;5.838;2022-09-09T12:42:00;19.50;99.90
21306;DHT22;10812;51.838;5.838;2022-09-09T12:44:31;19.70;99.90
21306;DHT22;10812;51.838;5.838;2022-09-09T12:47:02;19.80;99.90
21306;DHT22;10812;51.838;5.838;2022-09-09T12:49:33;19.60;99.90
21306;DHT22;10812;51.838;5.838;2022-09-09T12:52:07;19.40;99.90
21306;DHT22;10812;51.838;5.838;2022-09-09T12:54:37;19.40;99.90
21306;DHT22;10812;51.838;5.838;2022-09-09T12:57:11;19.50;99.90
21306;DHT22;10812;51.838;5.838;2022-09-09T12:59:41;19.40;99.90
21306;DHT22;10812;51.838;5.838;2022-09-09T13:02:20;19.40;99.90
21306;DHT22;10812;51.838;5.838;2022-09-09T13:04:49;19.50;99.90
21306;DHT22;10812;51.838;5.838;2022-09-09T13:07:19;19.50;99.90
21306;DHT22;10812;51.838;5.838;2022-09-09T13:09:49;19.70;99.90
21306;DHT22;10812;51.838;5.838;2022-09-09T13:12:19;19.70;99.90
21306;DHT22;10812;51.838;5.838;2022-09-09T13:14:51;19.70;99.90
21306;DHT22;10812;51.838;5.838;2022-09-09T13:17:23;19.60;99.90
21306;DHT22;10812;51.838;5.838;2022-09-09T13:19:52;19.50;99.90
21306;DHT22;10812;51.838;5.838;2022-09-09T13:22:31;19.40;99.90
21306;DHT22;10812;51.838;5.838;2022-09-09T13:25:05;19.50;99.90
21306;DHT22;10812;51.838;5.838;2022-09-09T13:27:35;19.80;99.90
21306;DHT22;10812;51.838;5.838;2022-09-09T13:30:20;20.20;99.90
21306;DHT22;10812;51.838;5.838;2022-09-09T13:33:01;20.10;99.90
21306;DHT22;10812;51.838;5.838;2022-09-09T13:35:30;20.00;99.90
21306;DHT22;10812;51.838;5.838;2022-09-09T13:38:06;19.90;99.90
21306;DHT22;10812;51.838;5.838;2022-09-09T13:40:35;19.90;99.90
21306;DHT22;10812;51.838;5.838;2022-09-09T13:43:03;19.90;99.90
21306;DHT22;10812;51.838;5.838;2022-09-09T13:45:32;19.60;99.90
21306;DHT22;10812;51.838;5.838;2022-09-09T13:48:09;19.00;99.90
21306;DHT22;10812;51.838;5.838;2022-09-09T13:50:40;18.70;99.90
21306;DHT22;10812;51.838;5.838;2022-09-09T13:53:10;18.60;99.90
21306;DHT22;10812;51.838;5.838;2022-09-09T13:55:38;18.80;99.90
21306;DHT22;10812;51.838;5.838;2022-09-09T13:58:06;18.90;99.90
21306;DHT22;10812;51.838;5.838;2022-09-09T14:00:35;19.10;99.90
21306;DHT22;10812;51.838;5.838;2022-09-09T14:03:03;19.10;99.90
21306;DHT22;10812;51.838;5.838;2022-09-09T14:05:33;19.10;99.90
21306;DHT22;10812;51.838;5.838;2022-09-09T14:08:03;19.30;99.90
21306;DHT22;10812;51.838;5.838;2022-09-09T14:10:33;19.40;99.90
21306;DHT22;10812;51.838;5.838;2022-09-09T14:13:02;19.50;99.90
21306;DHT22;10812;51.838;5.838;2022-09-09T14:15:30;19.50;99.90
21306;DHT22;10812;51.838;5.838;2022-09-09T14:17:58;19.40;99.90
21306;DHT22;10812;51.838;5.838;2022-09-09T14:20:26;19.60;99.90
21306;DHT22;10812;51.838;5.838;2022-09-09T14:22:54;19.90;99.90
21306;DHT22;10812;51.838;5.838;2022-09-09T14:25:29;20.00;99.90
21306;DHT22;10812;51.838;5.838;2022-09-09T14:27:59;20.10;99.90
21306;DHT22;10812;51.838;5.838;2022-09-09T14:30:28;20.20;99.90
21306;DHT22;10812;51.838;5.838;2022-09-09T14:32:56;20.50;99.90
21306;DHT22;10812;51.838;5.838;2022-09-09T14:35:24;20.60;99.90
21306;DHT22;10812;51.838;5.838;2022-09-09T14:37:53;20.80;99.90
21306;DHT22;10812;51.838;5.838;2022-09-09T14:40:23;20.70;99.90
21306;DHT22;10812;51.838;5.838;2022-09-09T14:42:52;20.70;99.90
21306;DHT22;10812;51.838;5.838;2022-09-09T14:45:22;20.40;99.90
21306;DHT22;10812;51.838;5.838;2022-09-09T14:47:51;20.40;99.90
21306;DHT22;10812;51.838;5.838;2022-09-09T14:50:20;20.30;99.90
21306;DHT22;10812;51.838;5.838;2022-09-09T14:52:49;20.30;99.90
21306;DHT22;10812;51.838;5.838;2022-09-09T14:55:17;20.10;99.90
21306;DHT22;10812;51.838;5.838;2022-09-09T14:57:45;20.10;99.90
21306;DHT22;10812;51.838;5.838;2022-09-09T15:00:14;20.10;99.90
21306;DHT22;10812;51.838;5.838;2022-09-09T15:02:44;20.20;99.90
21306;DHT22;10812;51.838;5.838;2022-09-09T15:05:12;20.40;99.90
21306;DHT22;10812;51.838;5.838;2022-09-09T15:07:41;20.60;99.90
21306;DHT22;10812;51.838;5.838;2022-09-09T15:10:09;20.80;99.90
21306;DHT22;10812;51.838;5.838;2022-09-09T15:12:37;20.90;99.90
21306;DHT22;10812;51.838;5.838;2022-09-09T15:15:06;20.90;99.90
21306;DHT22;10812;51.838;5.838;2022-09-09T15:17:34;20.70;99.90
21306;DHT22;10812;51.838;5.838;2022-09-09T15:20:04;20.40;99.90
21306;DHT22;10812;51.838;5.838;2022-09-09T15:22:33;20.20;99.90
21306;DHT22;10812;51.838;5.838;2022-09-09T15:25:04;20.10;99.90
21306;DHT22;10812;51.838;5.838;2022-09-09T15:27:32;20.10;99.90
21306;DHT22;10812;51.838;5.838;2022-09-09T15:30:00;20.10;99.90
21306;DHT22;10812;51.838;5.838;2022-09-09T15:32:28;20.20;99.90
21306;DHT22;10812;51.838;5.838;2022-09-09T15:34:57;20.30;99.90
21306;DHT22;10812;51.838;5.838;2022-09-09T15:37:26;20.30;99.90
21306;DHT22;10812;51.838;5.838;2022-09-09T15:39:54;20.20;99.90
21306;DHT22;10812;51.838;5.838;2022-09-09T15:42:25;20.10;99.90
21306;DHT22;10812;51.838;5.838;2022-09-09T15:44:53;19.90;99.90
21306;DHT22;10812;51.838;5.838;2022-09-09T15:47:21;19.70;99.90
21306;DHT22;10812;51.838;5.838;2022-09-09T15:49:49;19.60;99.90
21306;DHT22;10812;51.838;5.838;2022-09-09T15:52:18;19.50;99.90
21306;DHT22;10812;51.838;5.838;2022-09-09T15:54:47;19.40;99.90
21306;DHT22;10812;51.838;5.838;2022-09-09T15:57:15;19.30;99.90
21306;DHT22;10812;51.838;5.838;2022-09-09T15:59:43;19.30;99.90
21306;DHT22;10812;51.838;5.838;2022-09-09T16:02:11;19.30;99.90
21306;DHT22;10812;51.838;5.838;2022-09-09T16:04:40;18.90;99.90
21306;DHT22;10812;51.838;5.838;2022-09-09T16:07:08;18.30;99.90
21306;DHT22;10812;51.838;5.838;2022-09-09T16:09:36;17.80;99.90
21306;DHT22;10812;51.838;5.838;2022-09-09T16:12:06;17.30;99.90
21306;DHT22;10812;51.838;5.838;2022-09-09T16:14:36;17.00;99.90
21306;DHT22;10812;51.838;5.838;2022-09-09T16:17:05;16.80;99.90
21306;DHT22;10812;51.838;5.838;2022-09-09T16:19:34;16.70;99.90
21306;DHT22;10812;51.838;5.838;2022-09-09T16:22:02;16.70;99.90
21306;DHT22;10812;51.838;5.838;2022-09-09T16:24:31;16.70;99.90
21306;DHT22;10812;51.838;5.838;2022-09-09T16:27:00;16.70;99.90
21306;DHT22;10812;51.838;5.838;2022-09-09T16:29:29;16.70;99.90
21306;DHT22;10812;51.838;5.838;2022-09-09T16:31:58;16.60;99.90
21306;DHT22;10812;51.838;5.838;2022-09-09T16:34:30;16.60;99.90
21306;DHT22;10812;51.838;5.838;2022-09-09T16:36:58;16.60;99.90
21306;DHT22;10812;51.838;5.838;2022-09-09T16:39:26;16.60;99.90
21306;DHT22;10812;51.838;5.838;2022-09-09T16:41:54;16.50;99.90